EW6627 St Petersburg FL US current weather conditions

sailwx.info

Wind from 126 at 0 knots gusting 3

Air temperature 21.7° C
Dewpoint 13.8° C

Last reported at 2018-Dec-14 17:58 UTC.
Time now 2018-Dec-14 19:05 UTC

Location: N 27°47' W 082°41'.
View on Google Maps.

See reports from other nearby stations

  
Tides and Currents Weather Stations Pressure Air Temp Water Temp Dewpoint Dewpoint Depression Visibility Wind Speed Wind Dir Waves Ship Positions
date/time (UTC)wind fromknots sea level pressurealtimeterstation pressurevisibilityair tempwater tempwave heightnotes
2018-Dec-14 17:58 126 0 gusting 3 21.7
2018-Dec-14 17:46 148 21.1
2018-Dec-14 17:27 316 0 gusting 5 21.1
2018-Dec-14 17:20 117 21.1
2018-Dec-14 17:17 097 0 gusting 3 21.1
2018-Dec-14 17:07 175 0 gusting 2 21.1
2018-Dec-14 16:45 124 0 gusting 3 21.1
2018-Dec-14 16:34 136 20.6
2018-Dec-14 16:09 194 0 gusting 6 20.6
2018-Dec-14 15:56 042 1 gusting 4 20.6
2018-Dec-14 15:39 207 0 gusting 0 20.6
2018-Dec-14 15:27 211 1 gusting 7 20.6
2018-Dec-14 14:41 103 1 gusting 6 20.6
2018-Dec-14 14:37 186 1 gusting 6 20.6
2018-Dec-14 14:29 131 1 gusting 7 20.6
2018-Dec-14 13:59 113 2 gusting 8 21.7
2018-Dec-14 13:38 193 2 gusting 6 21.1
2018-Dec-14 13:33 160 2 gusting 6 21.1
2018-Dec-14 13:08 146 2 gusting 9 21.1
2018-Dec-14 13:03 186 2 gusting 10 21.1
2018-Dec-14 12:46 234 3 gusting 7 19.4
2018-Dec-14 11:47 194 2 gusting 10 20.6
2018-Dec-14 11:23 155 3 gusting 10 21.1
2018-Dec-14 11:12 063 3 gusting 8 21.1
2018-Dec-14 10:52 098 3 gusting 8 21.1
2018-Dec-14 10:23 166 3 gusting 7 20.6
2018-Dec-14 10:18 219 3 gusting 9 20.6
2018-Dec-14 10:03 166 2 gusting 11 20.6
2018-Dec-14 09:43 136 2 gusting 5 20.6
2018-Dec-14 09:38 135 2 gusting 6 20.6
2018-Dec-14 09:31 238 2 gusting 6 20.6
2018-Dec-14 09:24 184 3 gusting 10 20.6
2018-Dec-14 09:17 137 3 gusting 10 20.6
2018-Dec-14 09:04 173 3 gusting 10 20.6
2018-Dec-14 08:59 196 4 gusting 10 20.6
2018-Dec-14 08:41 071 3 gusting 10 20.6
2018-Dec-14 08:15 173 3 gusting 10 20.0
2018-Dec-14 07:12 132 3 gusting 9 20.0
2018-Dec-14 07:08 235 3 gusting 6 21.1
2018-Dec-14 06:29 138 2 gusting 8 20.0
2018-Dec-14 05:43 175 2 gusting 7 20.0
2018-Dec-14 05:22 130 2 gusting 9 20.6
2018-Dec-14 04:58 224 2 gusting 7 20.6
2018-Dec-14 04:28 115 2 gusting 9 21.1
2018-Dec-14 04:10 120 1 gusting 6 21.1
2018-Dec-14 03:56 242 1 gusting 6 21.1
2018-Dec-14 03:33 034 1 gusting 7 21.1
2018-Dec-14 03:22 050 1 gusting 8 21.1
2018-Dec-14 03:17 205 2 gusting 8 21.7
2018-Dec-14 03:00 207 4 gusting 8 21.7
2018-Dec-14 02:36 123 1 gusting 6 21.1
2018-Dec-14 02:17 199 2 gusting 6 21.7
2018-Dec-14 02:13 181 2 gusting 9 21.7
2018-Dec-14 02:10 056 1 gusting 5 21.1
2018-Dec-14 01:53 094 1 gusting 5 21.7
2018-Dec-14 01:11 175 4 gusting 10 22.2
2018-Dec-14 00:44 198 0 gusting 2 21.7
2018-Dec-14 00:35 186 5 gusting 12 21.7
2018-Dec-14 00:28 036 21.7
2018-Dec-14 00:03 010 22.2
2018-Dec-13 23:38 108 22.2
2018-Dec-13 23:07 108 22.8
2018-Dec-13 22:38 108 23.3
2018-Dec-13 22:33 176 4 gusting 13 21.7
2018-Dec-13 21:51 109 24.4
2018-Dec-13 21:25 110 0 gusting 3 24.4
2018-Dec-13 21:20 184 2 gusting 6 21.1
2018-Dec-13 21:17 124 0 gusting 3 24.4
2018-Dec-13 20:07 215 1 gusting 7 25.6
2018-Dec-13 19:43 085 1 gusting 6 25.6
2018-Dec-13 18:47 069 1 gusting 5 25.6
2018-Dec-13 18:42 115 1 gusting 3 25.6
2018-Dec-13 18:29 213 2 gusting 8 20.6
2018-Dec-13 18:08 132 1 gusting 3 25.6
2018-Dec-13 18:03 159 1 gusting 6 20.6
2018-Dec-13 17:52 114 1 gusting 4 25.0
2018-Dec-13 17:45 134 1 gusting 5 24.4
2018-Dec-13 17:33 071 1 gusting 3 24.4
2018-Dec-13 17:18 192 2 gusting 8 23.9
2018-Dec-13 16:57 111 1 gusting 4 23.9
2018-Dec-13 16:50 171 1 gusting 6 20.0
2018-Dec-13 16:47 286 1 gusting 6 23.3
2018-Dec-13 16:40 128 2 gusting 9 22.2
2018-Dec-13 16:19 173 0 gusting 6 20.0
2018-Dec-13 15:47 125 0 gusting 3 21.1
2018-Dec-13 15:17 188 1 gusting 4 21.7
2018-Dec-13 15:08 022 0 gusting 4 20.6
2018-Dec-13 14:47 005 0 gusting 3 20.0
2018-Dec-13 14:26 142 1 gusting 6 20.0
2018-Dec-13 13:42 030 0 gusting 2 16.1
2018-Dec-13 13:13 011 0 gusting 3 15.6
2018-Dec-13 13:02 042 0 gusting 2 15.0
2018-Dec-13 12:52 023 0 gusting 2 15.0
2018-Dec-13 12:24 165 1 gusting 5 20.6
2018-Dec-13 11:59 130 1 gusting 5 20.6
2018-Dec-13 11:42 019 0 gusting 2 14.4
2018-Dec-13 11:17 034 1 gusting 2 14.4
2018-Dec-13 11:02 022 0 gusting 4 14.4
2018-Dec-13 10:41 128 0 gusting 5 20.6
2018-Dec-13 10:24 118 0 gusting 2 20.6
2018-Dec-13 09:59 107 0 gusting 3 20.6
2018-Dec-13 09:02 355 0 gusting 1 14.4
2018-Dec-13 08:44 314 0 gusting 3 21.1
2018-Dec-13 08:39 030 0 gusting 2 13.9
2018-Dec-13 08:23 331 0 gusting 2 20.6
2018-Dec-13 08:18 109 0 gusting 1 21.1
2018-Dec-13 08:12 016 0 gusting 2 13.3
2018-Dec-13 07:57 013 0 gusting 1 13.9
2018-Dec-13 07:34 138 20.6
2018-Dec-13 07:29 138 20.6
2018-Dec-13 07:17 138 20.0
2018-Dec-13 06:26 138 20.6
2018-Dec-13 06:19 355 0 gusting 1 13.9
2018-Dec-13 06:10 355 0 gusting 3 13.3
2018-Dec-13 05:45 138 21.1
2018-Dec-13 05:42 005 0 gusting 1 13.3
2018-Dec-13 05:29 138 21.1
2018-Dec-13 05:16 005 13.3
2018-Dec-13 04:54 005 13.3
2018-Dec-13 04:34 138 23.3
2018-Dec-13 04:15 005 12.8
2018-Dec-13 03:45 005 13.3
2018-Dec-13 03:38 005 13.3
2018-Dec-13 03:12 005 13.3
2018-Dec-13 03:06 150 2 gusting 6 24.4
2018-Dec-13 03:04 212 1 gusting 5 24.4
2018-Dec-13 02:37 005 13.3
2018-Dec-13 02:32 005 0 gusting 3 13.3
2018-Dec-13 02:19 017 0 gusting 2 13.3
2018-Dec-13 01:58 259 3 gusting 6 25.6
2018-Dec-13 01:53 209 3 gusting 9 25.6
2018-Dec-13 01:44 017 0 gusting 1 13.3
2018-Dec-13 01:32 005 0 gusting 2 13.3
2018-Dec-13 01:22 005 13.3
2018-Dec-13 01:14 191 2 gusting 7 27.2
2018-Dec-13 01:09 204 1 gusting 7 27.8
2018-Dec-13 00:35 005 0 gusting 3 14.4
2018-Dec-13 00:10 028 0 gusting 2 14.4
2018-Dec-13 00:02 022 0 gusting 1 14.4
2018-Dec-12 22:57 17.2
2018-Dec-12 22:34 18.9
2018-Dec-12 22:25 134 1 gusting 3 27.8
2018-Dec-12 22:21 20.0
2018-Dec-12 21:53 115 1 gusting 4 27.2
2018-Dec-12 21:40 19.4
2018-Dec-12 21:24 038 1 gusting 3 27.2
2018-Dec-12 21:19 355 20.0
2018-Dec-12 21:10 078 1 gusting 4 26.7
2018-Dec-12 20:49 135 0 gusting 5 26.7
2018-Dec-12 20:23 273 1 gusting 3 25.6
2018-Dec-12 20:14 015 0 gusting 3 21.1
2018-Dec-12 20:07 015 0 gusting 3 21.1
2018-Dec-12 19:56 046 1 gusting 5 23.9